createdAt,value
2023-05-23T00:02:08.031Z,13.95
2023-05-23T00:04:36.697Z,14.15
2023-05-23T00:07:04.159Z,15.07
2023-05-23T00:09:31.518Z,14.38
2023-05-23T00:11:59.176Z,15.60
2023-05-23T00:14:26.746Z,15.48
2023-05-23T00:16:55.016Z,15.13
2023-05-23T00:19:23.714Z,16.02
2023-05-23T00:21:53.687Z,17.48
2023-05-23T00:24:21.932Z,17.00
2023-05-23T00:26:49.278Z,17.30
2023-05-23T00:29:17.475Z,18.08
2023-05-23T00:31:46.264Z,17.38
2023-05-23T00:34:13.594Z,18.25
2023-05-23T00:36:43.525Z,18.23
2023-05-23T00:39:18.830Z,17.83
2023-05-23T00:41:47.708Z,19.10
2023-05-23T00:44:16.710Z,18.25
2023-05-23T00:46:46.471Z,19.27
2023-05-23T00:49:14.262Z,18.55
2023-05-23T00:51:43.923Z,18.55
2023-05-23T00:54:11.494Z,19.45
2023-05-23T00:56:39.585Z,19.05
2023-05-23T00:59:07.534Z,19.55
2023-05-23T01:01:36.852Z,20.42
2023-05-23T01:04:04.580Z,20.80
2023-05-23T01:06:33.638Z,20.02
2023-05-23T01:09:02.953Z,18.77
2023-05-23T01:11:33.556Z,19.42
2023-05-23T01:14:05.179Z,19.15
2023-05-23T01:16:36.127Z,18.23
2023-05-23T01:19:10.360Z,20.10
2023-05-23T01:21:39.121Z,18.98
2023-05-23T01:24:22.594Z,19.55
2023-05-23T01:27:02.143Z,18.50
2023-05-23T01:29:33.528Z,19.90
2023-05-23T01:32:01.768Z,19.05
2023-05-23T01:34:29.886Z,16.73
2023-05-23T01:36:57.259Z,17.92
2023-05-23T01:39:24.923Z,16.27
2023-05-23T01:41:52.680Z,14.10
2023-05-23T01:44:21.911Z,13.65
2023-05-23T01:46:50.586Z,11.07
2023-05-23T01:49:19.159Z,8.02
2023-05-23T01:51:46.765Z,7.95
2023-05-23T01:54:16.778Z,7.78
2023-05-23T01:56:44.228Z,7.40
2023-05-23T01:59:11.632Z,6.32
2023-05-23T02:01:39.536Z,6.97
2023-05-23T02:04:08.472Z,6.57
2023-05-23T02:06:35.798Z,6.65
2023-05-23T02:09:03.172Z,6.63
2023-05-23T02:11:30.524Z,5.90
2023-05-23T02:13:57.878Z,6.90
2023-05-23T02:16:26.319Z,6.10
2023-05-23T02:18:56.305Z,6.60
2023-05-23T02:21:25.322Z,7.30
2023-05-23T02:23:52.659Z,6.43
2023-05-23T02:26:20.049Z,6.82
2023-05-23T02:28:47.416Z,6.05
2023-05-23T02:31:14.817Z,6.43
2023-05-23T02:33:42.219Z,6.35
2023-05-23T02:36:09.648Z,6.65
2023-05-23T02:38:38.285Z,6.80
2023-05-23T02:41:05.741Z,6.13
2023-05-23T02:43:33.067Z,7.03
2023-05-23T02:46:00.394Z,7.30
2023-05-23T02:48:27.878Z,8.68
2023-05-23T02:50:55.487Z,8.32
2023-05-23T02:53:23.122Z,9.88
2023-05-23T02:55:51.796Z,9.45
2023-05-23T02:58:19.832Z,9.07
2023-05-23T03:00:48.216Z,10.48
2023-05-23T03:03:16.806Z,10.90
2023-05-23T03:05:44.364Z,10.10
2023-05-23T03:08:11.976Z,10.23
2023-05-23T03:10:39.294Z,9.57
2023-05-23T03:13:08.272Z,10.65
2023-05-23T03:15:35.635Z,9.38
2023-05-23T03:18:03.028Z,10.25
2023-05-23T03:20:30.389Z,10.80
2023-05-23T03:22:57.707Z,9.98
2023-05-23T03:25:25.908Z,10.93
2023-05-23T03:27:53.200Z,10.55
2023-05-23T03:30:21.831Z,11.13
2023-05-23T03:32:49.732Z,11.77
2023-05-23T03:35:17.228Z,12.05
2023-05-23T03:37:44.524Z,11.23
2023-05-23T03:40:11.916Z,11.13
2023-05-23T03:42:39.610Z,11.57
2023-05-23T03:45:07.511Z,12.65
2023-05-23T03:47:36.294Z,11.50
2023-05-23T03:50:03.771Z,10.20
2023-05-23T03:52:31.068Z,10.60
2023-05-23T03:54:58.399Z,10.77
2023-05-23T03:57:25.674Z,9.85
2023-05-23T03:59:52.995Z,9.68
2023-05-23T04:02:20.497Z,8.80
2023-05-23T04:04:49.184Z,7.97
2023-05-23T04:07:16.569Z,9.27
2023-05-23T04:09:44.248Z,9.25
2023-05-23T04:12:11.878Z,9.77
2023-05-23T04:14:39.336Z,9.93
2023-05-23T04:17:08.913Z,9.30
2023-05-23T04:19:36.489Z,8.98
2023-05-23T04:22:05.296Z,8.23
2023-05-23T04:24:32.623Z,8.13
2023-05-23T04:27:00.630Z,8.38
2023-05-23T04:29:31.449Z,8.40
2023-05-23T04:31:58.920Z,8.95
2023-05-23T04:34:27.009Z,7.50
2023-05-23T04:36:54.866Z,10.63
2023-05-23T04:39:23.725Z,9.48
2023-05-23T04:41:51.272Z,10.75
2023-05-23T04:44:18.625Z,10.68
2023-05-23T04:46:46.115Z,10.88
2023-05-23T04:49:14.337Z,11.38
2023-05-23T04:51:41.669Z,11.50
2023-05-23T04:54:09.085Z,11.85
2023-05-23T04:56:38.369Z,11.68
2023-05-23T04:59:05.879Z,10.30
2023-05-23T05:01:34.355Z,9.98
2023-05-23T05:04:01.834Z,9.77
2023-05-23T05:06:29.186Z,10.05
2023-05-23T05:08:56.530Z,10.57
2023-05-23T05:11:23.870Z,10.77
2023-05-23T05:13:52.564Z,11.32
2023-05-23T05:16:19.963Z,11.55
2023-05-23T05:18:47.316Z,12.50
2023-05-23T05:21:14.711Z,11.00
2023-05-23T05:23:42.028Z,10.98
2023-05-23T05:26:09.396Z,10.75
2023-05-23T05:28:36.779Z,10.60
2023-05-23T05:31:05.868Z,11.15
2023-05-23T05:33:36.083Z,11.70
2023-05-23T05:36:03.977Z,12.48
2023-05-23T05:38:31.357Z,12.57
2023-05-23T05:40:58.742Z,13.18
2023-05-23T05:43:26.814Z,12.13
2023-05-23T05:45:54.264Z,14.32
2023-05-23T05:48:24.812Z,13.35
2023-05-23T05:50:52.189Z,14.07
2023-05-23T05:53:19.554Z,14.40
2023-05-23T05:55:46.898Z,13.32
2023-05-23T05:58:14.261Z,14.23
2023-05-23T06:00:43.401Z,12.27
2023-05-23T06:03:10.930Z,12.52
2023-05-23T06:05:40.322Z,12.43
2023-05-23T06:08:07.692Z,12.10
2023-05-23T06:10:35.102Z,12.32
2023-05-23T06:13:02.486Z,12.50
2023-05-23T06:15:29.814Z,12.70
2023-05-23T06:17:57.160Z,13.00
2023-05-23T06:20:24.509Z,13.60
2023-05-23T06:22:53.351Z,11.02
2023-05-23T06:25:20.886Z,10.98
2023-05-23T06:27:48.213Z,11.15
2023-05-23T06:30:15.993Z,11.70
2023-05-23T06:32:43.380Z,10.98
2023-05-23T06:35:10.846Z,11.65
2023-05-23T06:37:40.067Z,11.05
2023-05-23T06:40:09.349Z,11.48
2023-05-23T06:42:36.686Z,11.70
2023-05-23T06:45:04.190Z,10.55
2023-05-23T06:47:31.547Z,9.07
2023-05-23T06:49:58.915Z,10.23
2023-05-23T06:52:26.288Z,9.50
2023-05-23T06:54:53.618Z,10.32
2023-05-23T06:57:22.351Z,9.48
2023-05-23T06:59:49.688Z,10.00
2023-05-23T07:02:17.091Z,10.25
2023-05-23T07:04:44.449Z,9.43
2023-05-23T07:07:11.832Z,9.55
2023-05-23T07:09:39.381Z,9.80
2023-05-23T07:12:07.029Z,8.90
2023-05-23T07:14:38.057Z,8.75
2023-05-23T07:17:05.637Z,8.93
2023-05-23T07:19:33.078Z,9.40
2023-05-23T07:22:00.474Z,8.60
2023-05-23T07:24:27.876Z,8.55
2023-05-23T07:26:55.359Z,8.02
2023-05-23T07:29:22.676Z,8.05
2023-05-23T07:31:51.352Z,8.25
2023-05-23T07:34:18.698Z,7.45
2023-05-23T07:36:46.074Z,7.53
2023-05-23T07:39:14.611Z,7.65
2023-05-23T07:41:41.986Z,7.88
2023-05-23T07:44:09.543Z,8.07
2023-05-23T07:46:36.947Z,7.82
2023-05-23T07:49:06.077Z,7.30
2023-05-23T07:51:33.565Z,7.40
2023-05-23T07:54:02.665Z,7.47
2023-05-23T07:56:30.040Z,7.55
2023-05-23T07:58:57.376Z,6.95
2023-05-23T08:01:24.880Z,7.10
2023-05-23T08:03:52.233Z,6.95
2023-05-23T08:06:21.166Z,6.85
2023-05-23T08:08:48.462Z,8.30
2023-05-23T08:11:15.865Z,9.23
2023-05-23T08:13:43.209Z,9.18
2023-05-23T08:16:10.622Z,8.82
2023-05-23T08:18:38.167Z,9.80
2023-05-23T08:21:05.541Z,9.65
2023-05-23T08:23:34.212Z,12.13
2023-05-23T08:26:01.555Z,14.48
2023-05-23T08:28:28.914Z,13.70
2023-05-23T08:30:58.196Z,12.25
2023-05-23T08:33:25.546Z,10.57
2023-05-23T08:35:52.898Z,11.00
2023-05-23T08:38:21.919Z,10.48
2023-05-23T08:40:51.765Z,12.05
2023-05-23T08:43:19.300Z,10.82
2023-05-23T08:45:46.915Z,10.93
2023-05-23T08:48:14.982Z,11.27
2023-05-23T08:50:43.932Z,11.18
2023-05-23T08:53:11.669Z,11.50
2023-05-23T08:55:39.114Z,12.25
2023-05-23T08:58:07.916Z,11.95
2023-05-23T09:00:35.635Z,10.70
2023-05-23T09:03:03.330Z,10.70
2023-05-23T09:05:30.801Z,11.65
2023-05-23T09:07:58.198Z,12.10
2023-05-23T09:10:25.572Z,10.88
2023-05-23T09:12:52.951Z,11.00
2023-05-23T09:15:22.314Z,11.40
2023-05-23T09:17:50.417Z,10.30
2023-05-23T09:20:18.485Z,12.30
2023-05-23T09:22:46.992Z,11.52
2023-05-23T09:25:14.694Z,11.13
2023-05-23T09:27:42.182Z,11.18
2023-05-23T09:30:10.864Z,10.55
2023-05-23T09:32:39.566Z,10.20
2023-05-23T09:35:08.236Z,11.63
2023-05-23T09:37:36.551Z,12.75
2023-05-23T09:40:07.360Z,11.00
2023-05-23T09:42:35.063Z,11.27
2023-05-23T09:45:04.630Z,11.30
2023-05-23T09:47:32.637Z,11.75
2023-05-23T09:50:01.377Z,11.63
2023-05-23T09:52:28.713Z,9.43
2023-05-23T09:54:56.325Z,9.40
2023-05-23T09:57:25.007Z,9.95
2023-05-23T09:59:54.230Z,9.52
2023-05-23T10:02:31.134Z,8.75
2023-05-23T10:04:58.819Z,8.20
2023-05-23T10:07:28.141Z,8.32
2023-05-23T10:09:58.214Z,8.43
2023-05-23T10:12:44.697Z,8.20
2023-05-23T10:15:14.140Z,7.35
2023-05-23T10:17:47.239Z,7.72
2023-05-23T10:20:16.799Z,7.88
2023-05-23T10:22:45.778Z,6.53
2023-05-23T10:25:13.392Z,6.68
2023-05-23T10:27:40.831Z,6.35
2023-05-23T10:30:08.734Z,6.55
2023-05-23T10:32:36.834Z,7.15
2023-05-23T10:35:08.749Z,6.75
2023-05-23T10:37:39.772Z,6.18
2023-05-23T10:40:12.908Z,6.53
2023-05-23T10:42:46.266Z,6.43
2023-05-23T10:45:17.635Z,6.28
2023-05-23T10:47:45.130Z,6.18
2023-05-23T10:50:16.111Z,5.55
2023-05-23T10:52:44.951Z,5.50
2023-05-23T10:55:17.725Z,5.28
2023-05-23T10:57:45.707Z,5.32
2023-05-23T11:00:14.337Z,5.85
2023-05-23T11:02:47.812Z,5.40
2023-05-23T11:05:22.455Z,5.68
2023-05-23T11:08:04.701Z,5.57
2023-05-23T11:10:33.523Z,5.82
2023-05-23T11:13:07.025Z,5.68
2023-05-23T11:15:42.646Z,4.97
2023-05-23T11:18:10.071Z,5.85
2023-05-23T11:20:38.170Z,5.20
2023-05-23T11:23:08.631Z,4.82
2023-05-23T11:25:44.483Z,5.15
2023-05-23T11:28:12.672Z,4.65
2023-05-23T11:30:40.426Z,4.57
2023-05-23T11:33:09.425Z,4.78
2023-05-23T11:35:37.042Z,5.15
2023-05-23T11:38:05.461Z,4.70
2023-05-23T11:40:33.967Z,4.50
2023-05-23T11:43:03.791Z,4.43
2023-05-23T11:45:32.159Z,5.50
2023-05-23T11:47:59.722Z,5.07
2023-05-23T11:50:27.267Z,6.18
2023-05-23T11:52:55.668Z,5.38
2023-05-23T11:55:23.365Z,5.82
2023-05-23T11:57:51.600Z,6.20
2023-05-23T12:00:20.889Z,4.90
2023-05-23T12:02:49.019Z,5.22
2023-05-23T12:05:16.765Z,5.68
2023-05-23T12:07:46.350Z,5.60
2023-05-23T12:10:14.982Z,5.38
2023-05-23T12:12:43.005Z,4.93
2023-05-23T12:15:11.453Z,5.45
2023-05-23T12:17:40.298Z,6.38
2023-05-23T12:20:08.416Z,5.93
2023-05-23T12:22:36.218Z,5.57
2023-05-23T12:25:04.881Z,5.20
2023-05-23T12:27:33.461Z,4.65
2023-05-23T12:30:08.629Z,5.13
2023-05-23T12:32:36.541Z,5.35
2023-05-23T12:35:06.666Z,4.45
2023-05-23T12:37:34.166Z,4.43
2023-05-23T12:40:10.447Z,3.85
2023-05-23T12:42:44.911Z,5.10
2023-05-23T12:45:14.538Z,4.03
2023-05-23T12:47:41.879Z,3.45
2023-05-23T12:50:20.021Z,3.63
2023-05-23T12:53:16.178Z,3.70
2023-05-23T12:55:56.415Z,3.67
2023-05-23T12:58:23.741Z,3.78
2023-05-23T13:00:51.225Z,3.70
2023-05-23T13:03:25.464Z,3.55
2023-05-23T13:06:01.743Z,3.63
2023-05-23T13:08:35.453Z,3.60
2023-05-23T13:11:02.855Z,2.97
2023-05-23T13:13:30.480Z,3.70
2023-05-23T13:16:04.447Z,3.67
2023-05-23T13:18:38.810Z,3.10
2023-05-23T13:21:07.612Z,3.88
2023-05-23T13:23:35.977Z,3.55
2023-05-23T13:26:03.498Z,3.72
2023-05-23T13:28:30.870Z,3.70
2023-05-23T13:30:58.304Z,3.83
2023-05-23T13:33:25.764Z,3.42
2023-05-23T13:35:54.150Z,3.92
2023-05-23T13:38:26.068Z,3.00
2023-05-23T13:40:54.538Z,3.78
2023-05-23T13:43:21.913Z,3.75
2023-05-23T13:45:49.254Z,3.50
2023-05-23T13:48:16.697Z,4.30
2023-05-23T13:50:44.566Z,3.63
2023-05-23T13:53:16.475Z,3.95
2023-05-23T13:55:45.776Z,4.28
2023-05-23T13:58:13.382Z,3.72
2023-05-23T14:00:41.120Z,3.97
2023-05-23T14:03:09.392Z,4.07
2023-05-23T14:05:37.598Z,3.88
2023-05-23T14:08:05.322Z,3.95
2023-05-23T14:10:33.194Z,4.25
2023-05-23T14:13:02.018Z,3.90
2023-05-23T14:15:29.842Z,4.13
2023-05-23T14:17:58.465Z,3.70
2023-05-23T14:20:26.089Z,3.67
2023-05-23T14:22:53.438Z,3.85
2023-05-23T14:25:20.827Z,4.25
2023-05-23T14:27:48.189Z,3.78
2023-05-23T14:30:17.118Z,4.10
2023-05-23T14:32:44.589Z,3.60
2023-05-23T14:35:12.129Z,3.63
2023-05-23T14:37:39.779Z,3.70
2023-05-23T14:40:09.810Z,4.05
2023-05-23T14:42:37.671Z,3.40
2023-05-23T14:45:05.530Z,4.53
2023-05-23T14:47:34.697Z,4.53
2023-05-23T14:50:02.166Z,4.50
2023-05-23T14:52:29.622Z,4.22
2023-05-23T14:54:57.041Z,4.45
2023-05-23T14:57:24.648Z,4.43
2023-05-23T14:59:52.019Z,4.20
2023-05-23T15:02:19.894Z,4.40
2023-05-23T15:04:48.717Z,4.75
2023-05-23T15:07:18.168Z,3.63
2023-05-23T15:09:45.742Z,4.53
2023-05-23T15:12:15.075Z,4.00
2023-05-23T15:14:43.302Z,4.20
2023-05-23T15:17:12.546Z,4.18
2023-05-23T15:19:42.682Z,4.15
2023-05-23T15:22:25.744Z,3.60
2023-05-23T15:24:59.603Z,3.72
2023-05-23T15:27:26.986Z,4.05
2023-05-23T15:29:54.396Z,3.35
2023-05-23T15:32:21.838Z,3.95
2023-05-23T15:34:49.381Z,3.40
2023-05-23T15:37:18.253Z,3.13
2023-05-23T15:39:45.596Z,4.15
2023-05-23T15:42:12.958Z,3.50
2023-05-23T15:44:40.585Z,3.83
2023-05-23T15:47:07.987Z,3.97
2023-05-23T15:49:35.506Z,3.90
2023-05-23T15:52:02.865Z,3.63
2023-05-23T15:54:31.565Z,3.90
2023-05-23T15:56:58.943Z,3.70
2023-05-23T15:59:26.279Z,4.07
2023-05-23T16:01:53.695Z,3.58
2023-05-23T16:04:21.124Z,3.17
2023-05-23T16:06:48.545Z,3.38
2023-05-23T16:09:15.967Z,3.78
2023-05-23T16:11:44.618Z,3.97
2023-05-23T16:14:12.033Z,3.45
2023-05-23T16:16:39.473Z,3.33
2023-05-23T16:19:06.871Z,4.20
2023-05-23T16:21:34.256Z,3.78
2023-05-23T16:24:01.632Z,3.45
2023-05-23T16:26:29.082Z,3.38
2023-05-23T16:28:57.753Z,3.20
2023-05-23T16:31:26.963Z,3.85
2023-05-23T16:33:54.361Z,3.47
2023-05-23T16:36:22.000Z,3.50
2023-05-23T16:38:49.363Z,3.65
2023-05-23T16:41:16.739Z,3.63
2023-05-23T16:43:44.111Z,3.20
2023-05-23T16:46:12.791Z,3.72
2023-05-23T16:48:40.148Z,3.28
2023-05-23T16:51:07.540Z,3.42
2023-05-23T16:53:34.938Z,3.75
2023-05-23T16:56:02.357Z,3.45
2023-05-23T16:58:29.741Z,3.53
2023-05-23T17:00:57.026Z,3.83
2023-05-23T17:03:25.797Z,3.65
2023-05-23T17:05:53.192Z,3.53
2023-05-23T17:08:20.537Z,3.67
2023-05-23T17:10:47.965Z,4.32
2023-05-23T17:13:15.464Z,3.78
2023-05-23T17:15:43.093Z,3.33
2023-05-23T17:18:10.770Z,3.20
2023-05-23T17:20:39.522Z,3.70
2023-05-23T17:23:06.970Z,3.45
2023-05-23T17:25:34.321Z,4.60
2023-05-23T17:31:33.036Z,3.08
2023-05-23T17:34:00.429Z,3.20
2023-05-23T17:36:29.157Z,3.50
2023-05-23T17:38:56.804Z,4.15
2023-05-23T17:41:24.152Z,3.58
2023-05-23T17:43:51.524Z,3.25
2023-05-23T17:46:19.069Z,3.28
2023-05-23T17:48:48.265Z,3.67
2023-05-23T17:51:16.144Z,3.15
2023-05-23T17:53:44.972Z,3.67
2023-05-23T17:56:12.319Z,3.67
2023-05-23T17:58:42.477Z,3.33
2023-05-23T18:01:13.327Z,3.40
2023-05-23T18:03:40.798Z,3.20
2023-05-23T18:06:08.180Z,2.92
2023-05-23T18:08:35.567Z,3.72
2023-05-23T18:11:04.275Z,3.40
2023-05-23T18:13:31.647Z,3.03
2023-05-23T18:15:58.966Z,3.20
2023-05-23T18:18:26.318Z,3.85
2023-05-23T18:20:53.693Z,3.65
2023-05-23T18:23:22.271Z,3.20
2023-05-23T18:25:49.673Z,3.65
2023-05-23T18:28:18.371Z,3.70
2023-05-23T18:30:45.802Z,3.55
2023-05-23T18:33:13.301Z,3.65
2023-05-23T18:35:40.987Z,4.20
2023-05-23T18:38:08.530Z,4.22
2023-05-23T18:40:36.078Z,4.03
2023-05-23T18:43:03.446Z,3.40
2023-05-23T18:45:32.165Z,3.70
2023-05-23T18:47:59.650Z,3.75
2023-05-23T18:50:27.112Z,3.35
2023-05-23T18:52:54.446Z,3.70
2023-05-23T18:55:21.917Z,4.20
2023-05-23T18:57:49.319Z,3.72
2023-05-23T19:00:16.877Z,3.70
2023-05-23T19:02:46.197Z,3.70
2023-05-23T19:05:13.648Z,4.30
2023-05-23T19:07:40.997Z,4.07
2023-05-23T19:10:08.807Z,3.28
2023-05-23T19:12:36.246Z,3.90
2023-05-23T19:15:04.256Z,3.83
2023-05-23T19:17:31.622Z,3.72
2023-05-23T19:20:00.302Z,3.45
2023-05-23T19:22:31.458Z,4.25
2023-05-23T19:25:04.421Z,3.58
2023-05-23T19:27:31.756Z,3.38
2023-05-23T19:29:59.124Z,3.13
2023-05-23T19:32:26.507Z,3.90
2023-05-23T19:34:54.966Z,3.88
2023-05-23T19:37:23.727Z,4.32
2023-05-23T19:39:51.082Z,3.70
2023-05-23T19:42:18.641Z,3.65
2023-05-23T19:44:46.043Z,4.38
2023-05-23T19:47:13.407Z,3.70
2023-05-23T19:49:41.421Z,3.67
2023-05-23T19:52:08.747Z,3.80
2023-05-23T19:54:37.532Z,3.85
2023-05-23T19:57:05.268Z,3.65
2023-05-23T19:59:32.595Z,3.38
2023-05-23T20:02:00.082Z,4.07
2023-05-23T20:04:28.300Z,3.97
2023-05-23T20:06:55.755Z,3.28
2023-05-23T20:09:23.114Z,3.80
2023-05-23T20:11:51.913Z,3.85
2023-05-23T20:14:19.233Z,3.42
2023-05-23T20:16:46.583Z,3.58
2023-05-23T20:19:14.073Z,4.05
2023-05-23T20:21:41.407Z,3.38
2023-05-23T20:24:08.838Z,3.60
2023-05-23T20:26:36.170Z,4.43
2023-05-23T20:29:04.989Z,3.47
2023-05-23T20:31:32.372Z,3.88
2023-05-23T20:33:59.805Z,4.38
2023-05-23T20:36:27.222Z,4.35
2023-05-23T20:38:58.066Z,4.50
2023-05-23T20:41:25.448Z,3.90
2023-05-23T20:43:52.759Z,4.10
2023-05-23T20:46:22.007Z,4.35
2023-05-23T20:48:49.386Z,3.65
2023-05-23T20:51:16.831Z,3.83
2023-05-23T20:53:44.158Z,3.58
2023-05-23T20:56:11.502Z,4.18
2023-05-23T20:58:38.843Z,3.60
2023-05-23T21:01:06.256Z,4.38
2023-05-23T21:03:34.996Z,3.72
2023-05-23T21:06:02.383Z,3.67
2023-05-23T21:08:30.278Z,3.58
2023-05-23T21:10:59.044Z,4.00
2023-05-23T21:13:26.396Z,4.47
2023-05-23T21:15:53.706Z,4.15
2023-05-23T21:18:22.326Z,3.58
2023-05-23T21:20:52.633Z,3.72
2023-05-23T21:23:20.016Z,4.38
2023-05-23T21:25:47.365Z,4.25
2023-05-23T21:28:14.770Z,4.30
2023-05-23T21:30:42.769Z,3.38
2023-05-23T21:33:10.379Z,3.70
2023-05-23T21:35:38.131Z,3.38
2023-05-23T21:38:06.784Z,4.07
2023-05-23T21:40:34.108Z,4.47
2023-05-23T21:43:01.437Z,4.10
2023-05-23T21:45:28.826Z,3.80
2023-05-23T21:47:56.191Z,4.13
2023-05-23T21:50:23.590Z,4.55
2023-05-23T21:52:50.915Z,3.85
2023-05-23T21:55:19.604Z,4.40
2023-05-23T21:57:46.935Z,4.45
2023-05-23T22:00:14.984Z,4.18
2023-05-23T22:02:44.289Z,3.90
2023-05-23T22:05:12.966Z,4.25
2023-05-23T22:07:40.309Z,4.28
2023-05-23T22:10:08.352Z,3.92
2023-05-23T22:12:37.115Z,3.90
2023-05-23T22:15:04.677Z,4.18
2023-05-23T22:17:34.014Z,4.40
2023-05-23T22:20:02.289Z,4.85
2023-05-23T22:22:29.614Z,4.30
2023-05-23T22:24:56.947Z,3.38
2023-05-23T22:27:24.383Z,4.20
2023-05-23T22:29:53.190Z,5.15
2023-05-23T22:32:20.553Z,4.35
2023-05-23T22:34:47.888Z,4.57
2023-05-23T22:37:16.772Z,3.70
2023-05-23T22:39:44.121Z,4.57
2023-05-23T22:42:11.475Z,4.47
2023-05-23T22:44:38.775Z,4.57
2023-05-23T22:47:10.064Z,4.80
2023-05-23T22:49:37.477Z,4.35
2023-05-23T22:52:05.052Z,4.47
2023-05-23T22:54:32.375Z,5.00
2023-05-23T22:56:59.734Z,4.38
2023-05-23T22:59:27.060Z,4.53
2023-05-23T23:01:54.423Z,4.82
2023-05-23T23:04:23.513Z,3.88
2023-05-23T23:06:53.509Z,3.65
2023-05-23T23:09:21.105Z,4.47
2023-05-23T23:11:48.442Z,4.28
2023-05-23T23:14:15.836Z,4.30
2023-05-23T23:16:46.155Z,4.57
2023-05-23T23:19:13.774Z,4.60
2023-05-23T23:21:42.485Z,3.75
2023-05-23T23:24:10.905Z,4.15
2023-05-23T23:26:38.305Z,4.40
2023-05-23T23:29:05.657Z,4.57
2023-05-23T23:31:33.093Z,4.85
2023-05-23T23:34:00.491Z,4.60
2023-05-23T23:36:27.838Z,4.30
2023-05-23T23:38:56.510Z,4.18
2023-05-23T23:41:23.886Z,4.25
2023-05-23T23:43:51.262Z,4.45
2023-05-23T23:46:18.697Z,4.35
2023-05-23T23:48:46.145Z,4.10
2023-05-23T23:51:13.793Z,3.63
2023-05-23T23:53:41.210Z,4.50
2023-05-23T23:56:09.900Z,4.63
2023-05-23T23:58:37.261Z,4.38
